createdAt,value
2022-12-06T00:01:25.333Z,9.47
2022-12-06T00:03:56.496Z,7.47
2022-12-06T00:06:27.642Z,7.47
2022-12-06T00:08:56.016Z,7.70
2022-12-06T00:11:29.281Z,7.80
2022-12-06T00:14:02.621Z,7.57
2022-12-06T00:16:30.579Z,6.60
2022-12-06T00:18:58.575Z,6.83
2022-12-06T00:21:36.801Z,6.83
2022-12-06T00:24:12.845Z,7.57
2022-12-06T00:26:42.800Z,6.73
2022-12-06T00:29:16.076Z,7.27
2022-12-06T00:31:44.011Z,7.47
2022-12-06T00:34:11.436Z,6.87
2022-12-06T00:36:40.143Z,6.90
2022-12-06T00:39:10.464Z,6.50
2022-12-06T00:41:37.929Z,6.43
2022-12-06T00:44:06.262Z,6.33
2022-12-06T00:46:35.240Z,5.77
2022-12-06T00:49:04.367Z,6.90
2022-12-06T00:51:33.480Z,6.67
2022-12-06T00:54:00.836Z,7.00
2022-12-06T00:56:28.095Z,6.53
2022-12-06T00:58:55.715Z,7.23
2022-12-06T01:01:29.134Z,7.70
2022-12-06T01:04:03.748Z,7.13
2022-12-06T01:06:33.349Z,7.67
2022-12-06T01:09:03.760Z,7.17
2022-12-06T01:11:31.273Z,7.90
2022-12-06T01:13:58.625Z,7.53
2022-12-06T01:16:29.522Z,7.13
2022-12-06T01:18:59.939Z,7.47
2022-12-06T01:21:28.864Z,7.10
2022-12-06T01:23:56.941Z,7.43
2022-12-06T01:26:28.313Z,8.10
2022-12-06T01:28:57.094Z,8.03
2022-12-06T01:31:25.120Z,8.97
2022-12-06T01:33:52.485Z,9.70
2022-12-06T01:36:23.081Z,7.87
2022-12-06T01:38:55.056Z,7.70
2022-12-06T01:41:24.634Z,9.37
2022-12-06T01:43:52.534Z,8.40
2022-12-06T01:46:38.086Z,8.20
2022-12-06T01:49:17.631Z,8.97
2022-12-06T01:51:57.351Z,8.47
2022-12-06T01:54:26.304Z,8.50
2022-12-06T01:56:55.962Z,9.00
2022-12-06T01:59:24.661Z,8.60
2022-12-06T02:01:52.499Z,8.73
2022-12-06T02:04:20.368Z,9.00
2022-12-06T02:06:48.146Z,8.70
2022-12-06T02:09:16.913Z,9.03
2022-12-06T02:11:44.256Z,8.53
2022-12-06T02:14:15.099Z,9.10
2022-12-06T02:16:57.746Z,8.97
2022-12-06T02:19:35.007Z,8.03
2022-12-06T02:22:23.546Z,8.60
2022-12-06T02:25:17.772Z,8.03
2022-12-06T02:28:15.882Z,8.27
2022-12-06T02:31:09.793Z,8.23
2022-12-06T02:33:49.368Z,8.57
2022-12-06T02:36:32.575Z,7.90
2022-12-06T02:39:05.371Z,8.23
2022-12-06T02:41:42.070Z,8.50
2022-12-06T02:44:18.519Z,7.93
2022-12-06T02:46:47.728Z,7.83
2022-12-06T02:49:15.656Z,8.33
2022-12-06T02:51:44.459Z,8.43
2022-12-06T02:54:12.420Z,7.80
2022-12-06T02:56:39.832Z,8.60
2022-12-06T02:59:07.076Z,8.97
2022-12-06T03:01:38.989Z,9.57
2022-12-06T03:04:33.567Z,9.07
2022-12-06T03:07:48.324Z,8.93
2022-12-06T03:10:31.415Z,8.30
2022-12-06T03:13:17.316Z,9.57
2022-12-06T03:15:58.636Z,8.70
2022-12-06T03:18:42.387Z,8.63
2022-12-06T03:21:19.686Z,8.30
2022-12-06T03:23:50.210Z,9.53
2022-12-06T03:26:23.314Z,8.50
2022-12-06T03:28:54.767Z,8.63
2022-12-06T03:31:24.650Z,7.90
2022-12-06T03:34:06.777Z,8.67
2022-12-06T03:36:38.376Z,7.80
2022-12-06T03:39:09.274Z,7.57
2022-12-06T03:41:49.472Z,8.20
2022-12-06T03:44:16.951Z,7.67
2022-12-06T03:46:49.850Z,8.70
2022-12-06T03:49:31.188Z,8.00
2022-12-06T03:51:59.032Z,8.17
2022-12-06T03:54:26.985Z,9.30
2022-12-06T03:56:54.382Z,8.83
2022-12-06T03:59:21.762Z,8.53
2022-12-06T04:01:49.101Z,8.60
2022-12-06T04:04:16.624Z,9.00
2022-12-06T04:06:44.033Z,8.27
2022-12-06T04:09:30.008Z,8.03
2022-12-06T04:11:57.267Z,8.77
2022-12-06T04:14:32.256Z,7.93
2022-12-06T04:17:18.320Z,8.20
2022-12-06T04:19:50.681Z,8.13
2022-12-06T04:22:37.963Z,9.07
2022-12-06T04:25:05.769Z,8.00
2022-12-06T04:27:51.619Z,8.17
2022-12-06T04:30:37.591Z,8.03
2022-12-06T04:33:23.442Z,8.53
2022-12-06T04:36:09.453Z,8.57
2022-12-06T04:38:40.519Z,8.67
2022-12-06T04:41:08.801Z,9.47
2022-12-06T04:43:41.888Z,9.60
2022-12-06T04:46:15.411Z,9.07
2022-12-06T04:48:42.716Z,9.10
2022-12-06T04:51:12.853Z,8.67
2022-12-06T04:53:40.519Z,8.00
2022-12-06T04:56:08.485Z,9.03
2022-12-06T04:58:35.786Z,8.93
2022-12-06T05:01:03.452Z,9.07
2022-12-06T05:03:31.039Z,9.03
2022-12-06T05:05:58.422Z,8.47
2022-12-06T05:08:25.707Z,8.40
2022-12-06T05:10:53.753Z,8.90
2022-12-06T05:13:21.095Z,8.57
2022-12-06T05:15:55.773Z,8.50
2022-12-06T05:18:24.320Z,9.27
2022-12-06T05:21:00.516Z,8.90
2022-12-06T05:23:27.816Z,8.47
2022-12-06T05:26:03.828Z,8.00
2022-12-06T05:28:31.728Z,8.17
2022-12-06T05:30:59.503Z,8.97
2022-12-06T05:33:26.971Z,9.23
2022-12-06T05:35:54.316Z,9.57
2022-12-06T05:38:22.168Z,9.40
2022-12-06T05:40:49.846Z,9.43
2022-12-06T05:43:17.516Z,8.40
2022-12-06T05:45:45.167Z,7.93
2022-12-06T05:48:13.675Z,8.20
2022-12-06T05:50:41.643Z,8.43
2022-12-06T05:53:09.406Z,8.73
2022-12-06T05:55:36.987Z,8.70
2022-12-06T05:58:05.272Z,8.00
2022-12-06T06:00:33.038Z,7.97
2022-12-06T06:03:00.705Z,8.07
2022-12-06T06:05:28.270Z,7.77
2022-12-06T06:07:55.716Z,8.20
2022-12-06T06:10:24.041Z,7.57
2022-12-06T06:12:52.741Z,7.50
2022-12-06T06:15:20.227Z,8.37
2022-12-06T06:17:47.868Z,7.83
2022-12-06T06:20:15.310Z,7.63
2022-12-06T06:22:42.615Z,7.73
2022-12-06T06:25:10.614Z,7.60
2022-12-06T06:27:41.433Z,7.87
2022-12-06T06:30:12.973Z,8.43
2022-12-06T06:32:43.188Z,8.30
2022-12-06T06:35:10.926Z,7.70
2022-12-06T06:37:38.349Z,8.50
2022-12-06T06:40:06.681Z,8.67
2022-12-06T06:42:38.510Z,8.30
2022-12-06T06:45:11.030Z,8.80
2022-12-06T06:47:38.691Z,7.80
2022-12-06T06:50:07.601Z,8.00
2022-12-06T06:52:35.389Z,6.97
2022-12-06T06:55:02.839Z,7.43
2022-12-06T06:57:31.544Z,7.23
2022-12-06T07:00:03.174Z,7.23
2022-12-06T07:02:36.062Z,6.23
2022-12-06T07:05:03.767Z,7.23
2022-12-06T07:07:31.595Z,7.07
2022-12-06T07:09:59.239Z,6.93
2022-12-06T07:12:26.767Z,7.07
2022-12-06T07:14:54.454Z,6.30
2022-12-06T07:17:21.890Z,6.73
2022-12-06T07:19:49.221Z,7.13
2022-12-06T07:22:16.601Z,7.40
2022-12-06T07:24:47.933Z,7.33
2022-12-06T07:27:18.286Z,6.60
2022-12-06T07:29:45.787Z,6.87
2022-12-06T07:32:13.348Z,6.30
2022-12-06T07:34:40.796Z,6.20
2022-12-06T07:37:08.319Z,6.80
2022-12-06T07:39:35.551Z,6.43
2022-12-06T07:42:21.493Z,6.50
2022-12-06T07:45:02.248Z,6.47
2022-12-06T07:47:40.222Z,7.57
2022-12-06T07:50:15.975Z,5.73
2022-12-06T07:52:46.600Z,6.40
2022-12-06T07:55:14.754Z,5.90
2022-12-06T07:57:44.347Z,6.40
2022-12-06T08:00:15.380Z,6.47
2022-12-06T08:02:42.813Z,8.00
2022-12-06T08:05:11.261Z,6.33
2022-12-06T08:07:38.761Z,6.07
2022-12-06T08:10:06.989Z,5.47
2022-12-06T08:12:35.061Z,6.23
2022-12-06T08:15:02.824Z,6.50
2022-12-06T08:17:31.627Z,5.97
2022-12-06T08:19:59.174Z,6.00
2022-12-06T08:22:27.815Z,6.80
2022-12-06T08:24:55.460Z,6.23
2022-12-06T08:27:23.493Z,6.13
2022-12-06T08:29:50.966Z,6.07
2022-12-06T08:32:18.502Z,5.83
2022-12-06T08:34:45.788Z,6.47
2022-12-06T08:37:13.161Z,5.90
2022-12-06T08:39:40.465Z,6.40
2022-12-06T08:42:08.188Z,6.20
2022-12-06T08:44:36.377Z,6.43
2022-12-06T08:47:04.203Z,6.70
2022-12-06T08:49:32.515Z,6.20
2022-12-06T08:52:01.052Z,5.87
2022-12-06T08:54:28.725Z,6.10
2022-12-06T08:56:56.541Z,6.73
2022-12-06T08:59:24.175Z,7.07
2022-12-06T09:01:51.703Z,7.10
2022-12-06T09:04:19.856Z,8.13
2022-12-06T09:06:47.775Z,7.60
2022-12-06T09:09:17.088Z,6.73
2022-12-06T09:11:45.733Z,6.60
2022-12-06T09:14:21.876Z,7.20
2022-12-06T09:16:52.364Z,6.60
2022-12-06T09:19:20.696Z,7.23
2022-12-06T09:21:48.097Z,8.00
2022-12-06T09:24:17.439Z,7.90
2022-12-06T09:26:46.102Z,7.87
2022-12-06T09:29:14.411Z,8.40
2022-12-06T09:31:42.361Z,7.80
2022-12-06T09:34:11.553Z,7.37
2022-12-06T09:37:07.349Z,7.13
2022-12-06T09:39:44.521Z,6.87
2022-12-06T09:43:13.496Z,7.73
2022-12-06T09:45:49.280Z,6.97
2022-12-06T09:48:37.640Z,7.80
2022-12-06T09:51:26.574Z,7.33
2022-12-06T09:54:25.122Z,7.50
2022-12-06T09:56:59.835Z,6.80
2022-12-06T09:59:55.519Z,7.90
2022-12-06T10:02:48.137Z,6.97
2022-12-06T10:05:23.787Z,7.73
2022-12-06T10:08:12.855Z,7.43
2022-12-06T10:11:08.868Z,6.93
2022-12-06T10:14:03.652Z,6.53
2022-12-06T10:17:18.424Z,7.00
2022-12-06T10:20:04.673Z,6.93
2022-12-06T10:22:56.734Z,7.20
2022-12-06T10:25:34.250Z,6.30
2022-12-06T10:28:31.349Z,7.77
2022-12-06T10:31:04.725Z,7.40
2022-12-06T10:33:51.115Z,7.60
2022-12-06T10:36:53.815Z,6.77
2022-12-06T10:39:27.728Z,7.40
2022-12-06T10:42:13.244Z,7.47
2022-12-06T10:45:37.521Z,6.77
2022-12-06T10:48:14.768Z,6.53
2022-12-06T10:50:46.178Z,7.17
2022-12-06T10:53:18.672Z,7.60
2022-12-06T10:55:49.853Z,8.93
2022-12-06T10:58:39.525Z,7.30
2022-12-06T11:01:13.133Z,7.10
2022-12-06T11:04:00.258Z,7.20
2022-12-06T11:06:54.462Z,6.67
2022-12-06T11:09:43.704Z,6.50
2022-12-06T11:12:36.232Z,6.50
2022-12-06T11:15:23.735Z,6.37
2022-12-06T11:18:13.253Z,6.27
2022-12-06T11:21:03.202Z,6.87
2022-12-06T11:23:39.292Z,6.80
2022-12-06T11:26:37.987Z,6.43
2022-12-06T11:29:10.836Z,7.17
2022-12-06T11:31:49.550Z,7.03
2022-12-06T11:34:31.014Z,6.70
2022-12-06T11:37:00.589Z,6.57
2022-12-06T11:39:29.645Z,6.97
2022-12-06T11:42:00.944Z,7.27
2022-12-06T11:44:49.269Z,7.17
2022-12-06T11:47:22.437Z,6.90
2022-12-06T11:49:54.201Z,6.93
2022-12-06T11:52:47.772Z,7.10
2022-12-06T11:55:21.964Z,7.43
2022-12-06T11:57:51.756Z,6.83
2022-12-06T12:00:22.810Z,6.40
2022-12-06T12:02:53.069Z,7.10
2022-12-06T12:05:30.913Z,6.10
2022-12-06T12:08:05.666Z,6.33
2022-12-06T12:10:42.591Z,6.57
2022-12-06T12:13:45.339Z,6.07
2022-12-06T12:16:26.821Z,5.80
2022-12-06T12:19:01.346Z,6.47
2022-12-06T12:21:40.694Z,6.03
2022-12-06T12:25:17.249Z,5.83
2022-12-06T12:27:44.556Z,5.73
2022-12-06T12:30:37.177Z,6.40
2022-12-06T12:33:07.669Z,6.00
2022-12-06T12:36:03.678Z,6.90
2022-12-06T12:38:41.450Z,6.57
2022-12-06T12:41:39.966Z,5.73
2022-12-06T12:44:39.268Z,6.30
2022-12-06T12:47:21.275Z,5.80
2022-12-06T12:50:02.292Z,6.00
2022-12-06T12:52:39.178Z,6.13
2022-12-06T12:55:12.688Z,5.80
2022-12-06T12:57:41.442Z,6.80
2022-12-06T13:00:18.409Z,6.53
2022-12-06T13:02:51.049Z,7.10
2022-12-06T13:05:34.573Z,6.63
2022-12-06T13:08:14.996Z,6.83
2022-12-06T13:10:46.555Z,6.23
2022-12-06T13:13:28.551Z,7.13
2022-12-06T13:15:58.152Z,6.47
2022-12-06T13:18:42.799Z,6.93
2022-12-06T13:21:19.694Z,6.30
2022-12-06T13:23:52.662Z,6.57
2022-12-06T13:26:26.618Z,6.20
2022-12-06T13:28:58.928Z,5.77
2022-12-06T13:31:33.310Z,6.30
2022-12-06T13:34:14.911Z,6.00
2022-12-06T13:36:42.809Z,6.00
2022-12-06T13:39:32.653Z,6.23
2022-12-06T13:42:20.986Z,6.47
2022-12-06T13:44:48.363Z,5.90
2022-12-06T13:47:28.127Z,5.77
2022-12-06T13:50:21.905Z,5.70
2022-12-06T13:52:49.478Z,6.33
2022-12-06T13:55:26.132Z,6.33
2022-12-06T13:57:59.104Z,6.80
2022-12-06T14:00:37.267Z,7.10
2022-12-06T14:03:26.829Z,7.73
2022-12-06T14:06:18.272Z,7.37
2022-12-06T14:09:01.567Z,7.37
2022-12-06T14:11:36.568Z,7.47
2022-12-06T14:14:16.883Z,7.40
2022-12-06T14:16:57.566Z,8.77
2022-12-06T14:19:46.788Z,7.87
2022-12-06T14:22:24.390Z,8.97
2022-12-06T14:25:00.027Z,7.53
2022-12-06T14:27:42.716Z,7.33
2022-12-06T14:30:13.027Z,8.13
2022-12-06T14:32:49.774Z,7.47
2022-12-06T14:35:27.013Z,9.10
2022-12-06T14:38:01.743Z,8.43
2022-12-06T14:40:56.412Z,8.00
2022-12-06T14:43:28.577Z,8.93
2022-12-06T14:45:58.699Z,8.23
2022-12-06T14:48:26.912Z,7.87
2022-12-06T14:51:03.732Z,8.80
2022-12-06T14:53:36.573Z,8.53
2022-12-06T14:56:07.728Z,8.50
2022-12-06T14:58:40.393Z,8.67
2022-12-06T15:01:23.016Z,9.10
2022-12-06T15:04:01.866Z,9.40
2022-12-06T15:06:32.496Z,10.37
2022-12-06T15:08:59.775Z,8.27
2022-12-06T15:11:50.462Z,9.27
2022-12-06T15:14:24.590Z,9.30
2022-12-06T15:17:04.175Z,9.53
2022-12-06T15:19:34.766Z,9.10
2022-12-06T15:22:04.078Z,8.77
2022-12-06T15:24:31.560Z,9.10
2022-12-06T15:26:58.974Z,9.10
2022-12-06T15:29:26.324Z,9.17
2022-12-06T15:31:54.705Z,8.97
2022-12-06T15:34:31.018Z,9.93
2022-12-06T15:37:30.347Z,9.77
2022-12-06T15:39:48.320Z,9.77
2022-12-06T15:42:21.702Z,9.93
2022-12-06T15:44:50.435Z,9.40
2022-12-06T15:47:20.936Z,9.80
2022-12-06T15:49:52.918Z,10.63
2022-12-06T15:52:24.698Z,9.47
2022-12-06T15:54:52.115Z,11.03
2022-12-06T15:57:19.423Z,9.97
2022-12-06T15:59:46.700Z,10.53
2022-12-06T16:02:16.087Z,10.13
2022-12-06T16:04:45.435Z,10.47
2022-12-06T16:07:18.538Z,8.60
2022-12-06T16:09:47.333Z,10.10
2022-12-06T16:12:14.701Z,10.80
2022-12-06T16:14:42.135Z,10.03
2022-12-06T16:17:09.535Z,10.10
2022-12-06T16:19:55.588Z,10.13
2022-12-06T16:22:42.977Z,8.73
2022-12-06T16:25:10.594Z,8.60
2022-12-06T16:27:38.123Z,8.80
2022-12-06T16:30:06.197Z,9.90
2022-12-06T16:32:33.715Z,8.43
2022-12-06T16:35:01.275Z,8.93
2022-12-06T16:37:28.939Z,8.17
2022-12-06T16:39:56.204Z,8.13
2022-12-06T16:42:23.584Z,9.63
2022-12-06T16:44:51.200Z,8.53
2022-12-06T16:49:48.053Z,9.37
2022-12-06T16:52:17.184Z,9.60
2022-12-06T16:54:44.693Z,9.50
2022-12-06T16:57:13.577Z,9.93
2022-12-06T16:59:42.424Z,9.57
2022-12-06T17:02:26.969Z,10.37
2022-12-06T17:04:55.505Z,9.73
2022-12-06T17:07:23.482Z,9.83
2022-12-06T17:09:50.839Z,10.53
2022-12-06T17:12:18.272Z,11.30
2022-12-06T17:14:45.994Z,10.10
2022-12-06T17:17:15.564Z,10.23
2022-12-06T17:19:44.474Z,10.77
2022-12-06T17:22:13.526Z,10.23
2022-12-06T17:24:41.278Z,10.20
2022-12-06T17:27:09.847Z,10.47
2022-12-06T17:29:37.351Z,11.07
2022-12-06T17:32:05.095Z,11.50
2022-12-06T17:34:32.639Z,10.73
2022-12-06T17:37:00.232Z,12.13
2022-12-06T17:39:27.688Z,11.07
2022-12-06T17:42:13.673Z,11.00
2022-12-06T17:44:41.526Z,11.07
2022-12-06T17:47:09.084Z,11.17
2022-12-06T17:49:38.197Z,10.10
2022-12-06T17:52:05.718Z,10.40
2022-12-06T17:54:33.231Z,11.40
2022-12-06T17:57:00.659Z,12.03
2022-12-06T17:59:31.812Z,11.17
2022-12-06T18:02:17.028Z,11.37
2022-12-06T18:04:47.126Z,10.63
2022-12-06T18:07:15.347Z,11.57
2022-12-06T18:09:42.677Z,10.20
2022-12-06T18:12:12.059Z,11.03
2022-12-06T18:14:39.444Z,10.90
2022-12-06T18:17:07.010Z,11.23
2022-12-06T18:19:34.756Z,10.67
2022-12-06T18:22:02.408Z,10.43
2022-12-06T18:24:35.223Z,10.87
2022-12-06T18:27:05.513Z,10.60
2022-12-06T18:29:51.178Z,10.47
2022-12-06T18:32:18.938Z,11.23
2022-12-06T18:34:46.214Z,11.30
2022-12-06T18:37:13.635Z,11.50
2022-12-06T18:39:40.934Z,11.87
2022-12-06T18:42:08.337Z,12.00
2022-12-06T18:44:35.957Z,11.93
2022-12-06T18:47:03.344Z,13.20
2022-12-06T18:49:30.783Z,12.03
2022-12-06T18:51:58.194Z,13.23
2022-12-06T18:54:26.365Z,13.00
2022-12-06T18:56:53.771Z,13.80
2022-12-06T18:59:25.966Z,14.30
2022-12-06T19:01:55.563Z,14.17
2022-12-06T19:04:22.984Z,12.57
2022-12-06T19:06:50.599Z,13.10
2022-12-06T19:09:18.858Z,13.03
2022-12-06T19:11:46.425Z,13.50
2022-12-06T19:14:14.798Z,13.23
2022-12-06T19:16:47.919Z,15.77
2022-12-06T19:19:19.531Z,13.83
2022-12-06T19:21:48.236Z,13.53
2022-12-06T19:24:19.979Z,13.57
2022-12-06T19:26:48.973Z,13.33
2022-12-06T19:29:16.525Z,13.80
2022-12-06T19:31:44.553Z,13.40
2022-12-06T19:34:17.961Z,23.77
2022-12-06T19:36:46.283Z,15.67
2022-12-06T19:39:14.520Z,14.63
2022-12-06T19:42:00.541Z,16.30
2022-12-06T19:44:28.721Z,14.63
2022-12-06T19:46:57.339Z,15.43
2022-12-06T19:49:26.416Z,16.90
2022-12-06T19:51:54.359Z,16.73
2022-12-06T19:54:27.178Z,16.07
2022-12-06T19:56:57.182Z,16.27
2022-12-06T19:59:29.908Z,16.53
2022-12-06T20:01:58.382Z,14.90
2022-12-06T20:04:31.960Z,13.80
2022-12-06T20:07:00.554Z,19.03
2022-12-06T20:09:30.737Z,15.37
2022-12-06T20:12:03.926Z,15.33
2022-12-06T20:14:40.437Z,14.33
2022-12-06T20:17:13.938Z,14.90
2022-12-06T20:19:46.614Z,14.57
2022-12-06T20:22:15.799Z,13.20
2022-12-06T20:24:43.621Z,14.37
2022-12-06T20:27:11.532Z,12.80
2022-12-06T20:29:40.091Z,15.07
2022-12-06T20:32:07.544Z,13.60
2022-12-06T20:34:35.317Z,14.20
2022-12-06T20:37:04.384Z,15.97
2022-12-06T20:39:34.888Z,16.83
2022-12-06T20:42:03.326Z,15.47
2022-12-06T20:44:31.421Z,14.87
2022-12-06T20:46:59.492Z,15.10
2022-12-06T20:49:27.008Z,16.60
2022-12-06T20:51:54.562Z,16.63
2022-12-06T20:54:22.271Z,13.80
2022-12-06T20:56:53.355Z,14.63
2022-12-06T20:59:21.275Z,14.50
2022-12-06T21:01:48.848Z,16.17
2022-12-06T21:04:17.513Z,13.83
2022-12-06T21:06:45.293Z,15.43
2022-12-06T21:09:12.879Z,14.07
2022-12-06T21:11:40.303Z,15.50
2022-12-06T21:14:07.974Z,15.80
2022-12-06T21:16:38.158Z,14.63
2022-12-06T21:19:08.422Z,14.87
2022-12-06T21:21:38.291Z,14.67
2022-12-06T21:24:11.344Z,15.90
2022-12-06T21:26:39.552Z,14.97
2022-12-06T21:29:07.423Z,14.77
2022-12-06T21:31:41.067Z,14.70
2022-12-06T21:34:09.094Z,13.93
2022-12-06T21:36:37.311Z,15.30
2022-12-06T21:39:05.665Z,16.23
2022-12-06T21:41:33.197Z,15.07
2022-12-06T21:44:01.013Z,14.37
2022-12-06T21:46:28.907Z,14.77
2022-12-06T21:48:59.127Z,14.27
2022-12-06T21:51:29.037Z,15.10
2022-12-06T21:53:57.128Z,15.07
2022-12-06T21:56:27.408Z,15.30
2022-12-06T21:58:54.824Z,16.37
2022-12-06T22:01:25.304Z,14.80
2022-12-06T22:03:54.488Z,15.87
2022-12-06T22:06:21.896Z,15.30
2022-12-06T22:08:55.310Z,15.90
2022-12-06T22:11:22.711Z,20.40
2022-12-06T22:13:50.316Z,20.93
2022-12-06T22:16:20.745Z,16.07
2022-12-06T22:18:48.539Z,16.37
2022-12-06T22:21:22.216Z,16.10
2022-12-06T22:23:49.626Z,15.37
2022-12-06T22:26:22.774Z,15.57
2022-12-06T22:28:50.805Z,15.93
2022-12-06T22:31:27.090Z,16.80
2022-12-06T22:33:55.745Z,14.73
2022-12-06T22:36:23.640Z,15.37
2022-12-06T22:38:58.827Z,15.83
2022-12-06T22:41:27.103Z,16.80
2022-12-06T22:43:57.477Z,16.60
2022-12-06T22:46:28.947Z,16.30
2022-12-06T22:48:57.690Z,16.87
2022-12-06T22:51:29.165Z,16.70
2022-12-06T22:53:58.664Z,18.37
2022-12-06T22:56:27.236Z,17.63
2022-12-06T22:58:56.281Z,16.97
2022-12-06T23:01:25.724Z,17.33
2022-12-06T23:03:53.990Z,15.50
2022-12-06T23:06:23.886Z,15.83
2022-12-06T23:08:51.635Z,16.40
2022-12-06T23:11:28.826Z,15.17
2022-12-06T23:13:57.705Z,15.70
2022-12-06T23:16:28.004Z,16.40
2022-12-06T23:18:55.961Z,16.60
2022-12-06T23:21:27.228Z,16.00
2022-12-06T23:24:01.350Z,16.70
2022-12-06T23:26:32.378Z,16.67
2022-12-06T23:29:00.128Z,16.97
2022-12-06T23:31:31.087Z,16.80
2022-12-06T23:34:01.677Z,15.97
2022-12-06T23:36:31.488Z,16.37
2022-12-06T23:38:59.930Z,17.73
2022-12-06T23:41:29.902Z,16.70
2022-12-06T23:43:58.540Z,15.80
2022-12-06T23:46:31.549Z,17.27
2022-12-06T23:48:59.346Z,17.07
2022-12-06T23:51:31.079Z,16.43
2022-12-06T23:53:59.421Z,16.30
2022-12-06T23:56:32.944Z,16.10
2022-12-06T23:59:01.087Z,18.33
